Stolt Surf — ZCSR3 — position and weather

sailwx.info

Track history (hours):
 
Tides and Currents Weather Stations Pressure Air Temp Water Temp Dewpoint Dewpoint Depression Visibility Wind Speed Wind Dir Waves Ship Positions

Stolt Surf

Last reported at 2016-Feb-08 07:32 UTC. Time now 2016-Feb-12 01:25 UTC.
Position N 01°56' E 102°19'.

Length 163 m; draft 9.7 m.

Type: Ship. MMSI: 319545000.

Date/timePositionNaut miles runAvg speedWind from/ knotsBaromVisibWave heightAir tempDewpointWater temp
2016-Feb-08 07:32N 01°56' E 102°19'1616.2
2016-Feb-08 06:32N 01°49' E 102°34'7514.8
2016-Feb-08 01:29N 01°11' E 103°38'1212.6
2016-Feb-08 00:33N 01°11' E 103°50'1413.0
2016-Feb-07 23:30N 01°17' E 104°03'6 6.4
2016-Feb-07 22:33N 01°23' E 104°02'4 0.1
2016-Feb-05 21:09N 01°20' E 104°05'1 0.2
2016-Feb-05 14:20N 01°20' E 104°06'0 0.0
2016-Feb-05 12:08N 01°20' E 104°06'0 0.0
2016-Feb-05 10:26N 01°20' E 104°06'  
2016-Feb-03 02:14N 01°20' E 104°06'0 0.0
2016-Feb-03 01:05N 01°20' E 104°06'0 0.0
2016-Feb-02 04:08N 01°20' E 104°06'0 0.0
2016-Feb-01 20:08N 01°20' E 104°06'0 0.0
2016-Feb-01 19:20N 01°20' E 104°06'0 0.0
2016-Feb-01 18:20N 01°20' E 104°06'6 0.6
2016-Feb-01 08:33N 01°15' E 104°04'1211.4
2016-Feb-01 07:29N 01°11' E 103°52'9 9.8
2016-Feb-01 06:33N 01°06' E 103°44'10 9.8
2016-Feb-01 05:33N 01°05' E 103°35'  
Track history (hours):
 
Tides and Currents Weather Stations Pressure Air Temp Water Temp Dewpoint Dewpoint Depression Visibility Wind Speed Wind Dir Waves Ship Positions

Stolt Surf

Last reported at 2016-Feb-08 07:32 UTC. Time now 2016-Feb-12 01:25 UTC.
Position N 01°56' E 102°19'.

Length 163 m; draft 9.7 m.

Type: Ship. MMSI: 319545000.

Date/timePositionNaut miles runAvg speedWind from/ knotsBaromVisibWave heightAir tempDewpointWater temp
2016-Feb-08 07:32N 01°56' E 102°19'1616.2
2016-Feb-08 06:32N 01°49' E 102°34'7514.8
2016-Feb-08 01:29N 01°11' E 103°38'1212.6
2016-Feb-08 00:33N 01°11' E 103°50'1413.0
2016-Feb-07 23:30N 01°17' E 104°03'6 6.4
2016-Feb-07 22:33N 01°23' E 104°02'4 0.1
2016-Feb-05 21:09N 01°20' E 104°05'1 0.2
2016-Feb-05 14:20N 01°20' E 104°06'0 0.0
2016-Feb-05 12:08N 01°20' E 104°06'0 0.0
2016-Feb-05 10:26N 01°20' E 104°06'  
2016-Feb-03 02:14N 01°20' E 104°06'0 0.0
2016-Feb-03 01:05N 01°20' E 104°06'0 0.0
2016-Feb-02 04:08N 01°20' E 104°06'0 0.0
2016-Feb-01 20:08N 01°20' E 104°06'0 0.0
2016-Feb-01 19:20N 01°20' E 104°06'0 0.0
2016-Feb-01 18:20N 01°20' E 104°06'6 0.6
2016-Feb-01 08:33N 01°15' E 104°04'1211.4
2016-Feb-01 07:29N 01°11' E 103°52'9 9.8
2016-Feb-01 06:33N 01°06' E 103°44'10 9.8
2016-Feb-01 05:33N 01°05' E 103°35'  

Dump ship's entire track history